Stations météo

réclame
Mon MeteoGroup
Ell, Pays-Bas (6377): Température de l'air & dewpoint: 07.12.2017 04:00:00 - 13.12.2017 04:00:00 (CET)Ell, Pays-Bas (6377): Température de l'air 5cm: 07.12.2017 04:00:00 - 13.12.2017 04:00:00 (CET)Ell, Pays-Bas (6377): Vitesse du vent & gusts: 07.12.2017 04:00:00 - 13.12.2017 04:00:00 (CET)Ell, Pays-Bas (6377): Direction du vent: 07.12.2017 04:00:00 - 13.12.2017 04:00:00 (CET)Ell, Pays-Bas (6377): visibility: 07.12.2017 04:00:00 - 13.12.2017 04:00:00 (CET)Ell, Pays-Bas (6377): Quantités de précipitations: 07.12.2017 04:00:00 - 13.12.2017 04:00:00 (CET)
Date & Time tt [°C] td [°C] tt 5cm [°C] ff [km/h] ff [knt] fx [km/h] fx [knt] dd vv [km] rr [mm]
13.12.2017 04:00:00 1,8 -0,2 1,1 23 13 - - S 18 -
13.12.2017 03:00:00 1,2 -0,3 0,4 22 12 29 16 S 15 0,0
13.12.2017 02:00:00 0,9 -0,4 0,1 14 8 25 14 S 14 0,0
13.12.2017 01:00:00 0,4 -0,6 -0,6 14 8 22 12 S 14 0,0
13.12.2017 00:00:00 -0,1 -1,0 -0,8 11 6 22 12 S 12 0,0
12.12.2017 23:00:00 1,1 -0,3 0,3 14 8 22 12 SSW 13 0,0
12.12.2017 22:00:00 1,0 -0,1 0,2 14 8 22 12 SSW 10 0,0
12.12.2017 21:00:00 1,2 0,2 0,5 11 6 18 10 S 8 0,0
12.12.2017 20:00:00 2,0 0,9 1,7 11 6 18 10 SSW 8 0,0
12.12.2017 19:00:00 2,1 1,1 1,7 11 6 14 8 SSW 6 0,0
12.12.2017 18:00:00 2,2 1,0 1,8 7 4 18 10 SW 7 0,0
12.12.2017 17:00:00 2,0 1,1 1,5 14 8 22 12 SW 7 0,0
12.12.2017 16:00:00 1,3 0,6 1,0 14 8 25 14 SW 9 0,0
12.12.2017 15:00:00 2,3 1,0 1,9 14 8 32 18 WSW 17 0,0
12.12.2017 14:00:00 2,1 0,9 1,7 18 10 32 18 WSW 18 0,0
12.12.2017 13:00:00 2,1 0,8 1,7 18 10 29 16 SW 17 0,0
12.12.2017 12:00:00 2,1 0,8 1,9 22 12 36 19 WSW 19 0,0
12.12.2017 11:00:00 1,6 0,8 1,3 18 10 32 18 WSW 11 0,0
12.12.2017 10:00:00 1,5 0,6 1,1 22 12 32 18 WSW 10 0,0
12.12.2017 09:00:00 1,2 0,6 0,9 18 10 29 16 WSW 9 0,0
12.12.2017 08:00:00 1,3 0,5 0,9 18 10 29 16 WSW 13 0,0
12.12.2017 07:00:00 1,4 0,5 1,0 22 12 36 19 WSW 12 0,0
12.12.2017 06:00:00 1,5 0,3 1,2 22 12 32 18 WSW 13 0,0
12.12.2017 05:00:00 1,2 0,0 1,0 22 12 32 18 WSW 20 0,0
12.12.2017 04:00:00 1,2 0,1 1,0 22 12 32 18 W 19 0,0
12.12.2017 03:00:00 1,3 0,2 0,9 22 12 32 18 W 20 0,0
12.12.2017 02:00:00 1,2 0,0 0,7 22 12 32 18 WNW 35 0,0
12.12.2017 01:00:00 0,8 0,0 0,5 22 12 32 18 W 15 0,0
12.12.2017 00:00:00 0,5 -0,2 0,2 18 10 29 16 W 7 0,0
11.12.2017 23:00:00 0,3 -0,2 0,0 14 8 25 14 NW 7 0,2
11.12.2017 22:00:00 0,2 -0,1 0,1 14 8 25 14 NW 2,6 0,5
11.12.2017 21:00:00 0,6 0,2 0,4 14 8 22 12 NW 2,9 0,7
11.12.2017 20:00:00 1,1 1,0 0,7 11 6 18 10 NNW 2,3 1,1
11.12.2017 19:00:00 1,3 1,2 0,7 7 4 14 8 NW 2,3 0,4
11.12.2017 18:00:00 1,1 1,0 0,5 11 6 14 8 NE 3,2 0,3
11.12.2017 17:00:00 1,1 0,9 0,6 11 6 14 8 ENE 4,6 0,1
11.12.2017 16:00:00 1,0 0,8 0,6 7 4 25 14 ENE 5 0,0
11.12.2017 15:00:00 0,8 0,4 0,5 18 10 40 21 ENE 6 1,8
11.12.2017 14:00:00 0,8 0,3 0,3 25 14 43 23 ENE 8 1,7
11.12.2017 13:00:00 0,8 0,5 0,4 22 12 47 25 NE 8 1,7
11.12.2017 12:00:00 0,1 0,1 0,2 25 14 40 21 NE 4,3 2,8
11.12.2017 11:00:00 0,0 0,0 0,0 25 14 36 19 NE 0,2 2,3
11.12.2017 10:00:00 0,0 -0,2 0,0 18 10 32 18 NE 0,4 1,5
11.12.2017 09:00:00 0,0 -0,6 0,0 22 12 32 18 ENE 0,6 0,1
11.12.2017 08:00:00 0,6 -1,4 0,4 18 10 32 18 ENE 18 0,0
11.12.2017 07:00:00 0,7 -1,0 0,4 14 8 25 14 ENE 13 0,0
11.12.2017 06:00:00 0,7 -0,1 0,4 14 8 22 12 NE 10 0,0
11.12.2017 05:00:00 0,6 0,1 -0,1 11 6 11 6 NE 6 0,0
11.12.2017 04:00:00 -0,1 -0,2 -1,0 4 2 11 6 N 8 0,0
11.12.2017 03:00:00 -0,2 -1,0 -1,8 7 4 11 6 S 9 0,0
11.12.2017 02:00:00 1,7 0,5 1,0 7 4 22 12 SW 15 0,0
11.12.2017 01:00:00 3,4 1,7 3,1 14 8 25 14 WSW 24 0,0
11.12.2017 00:00:00 3,2 1,9 3,0 22 12 36 19 W 20 0,0
10.12.2017 23:00:00 3,7 1,5 3,4 29 16 58 31 WSW 14 0,0
10.12.2017 22:00:00 4,0 1,1 3,7 36 19 61 33 WSW 44 0,0
10.12.2017 21:00:00 5,2 1,6 4,7 40 21 68 37 WSW 42 1,0
10.12.2017 20:00:00 6,4 4,7 5,4 40 21 61 33 SW 11 1,2
10.12.2017 19:00:00 5,7 3,9 4,1 32 18 58 31 SSW 12 1,2
10.12.2017 18:00:00 5,8 3,5 4,0 36 19 58 31 SSW 5 0,9
10.12.2017 17:00:00 5,7 2,8 - 32 18 50 27 SSW 11 1,9
10.12.2017 16:00:00 4,4 2,8 2,4 29 16 43 23 SSW 14 3,9
10.12.2017 15:00:00 2,5 1,7 0,6 18 10 29 16 S 27 1,5
10.12.2017 14:00:00 0,3 0,3 0,2 18 10 36 19 SE 3,8 1,3
10.12.2017 13:00:00 0,0 0,0 0,0 22 12 43 23 ESE 0,7 1,9
10.12.2017 12:00:00 0,0 0,0 0,1 25 14 40 21 ESE 0,2 1,2
10.12.2017 11:00:00 0,2 0,0 0,2 18 10 43 23 ESE 2,2 0,6
10.12.2017 10:00:00 1,6 -0,2 1,3 29 16 43 23 SSE 13 0,1
10.12.2017 09:00:00 2,0 -0,3 1,6 14 8 29 16 SSE 35 0,0
10.12.2017 08:00:00 1,7 -0,2 1,1 14 8 25 14 SSE 26 0,0
10.12.2017 07:00:00 1,6 -0,2 1,0 18 10 25 14 S 26 0,0
10.12.2017 06:00:00 1,5 -0,1 0,9 18 10 29 16 S 20 0,0
10.12.2017 05:00:00 1,6 0,1 1,2 18 10 29 16 SSW 12 0,2
10.12.2017 04:00:00 1,3 0,2 1,1 18 10 29 16 SSW 6 0,1
10.12.2017 03:00:00 1,3 0,2 1,0 18 10 25 14 SSW 9 0,3
10.12.2017 02:00:00 1,5 -0,2 1,2 18 10 32 18 SSW 8 0,0
10.12.2017 01:00:00 1,6 -0,6 1,0 22 12 32 18 SSW 24 0,0
10.12.2017 00:00:00 1,3 -0,7 0,2 18 10 32 18 SW 25 0,0
09.12.2017 23:00:00 1,0 -1,0 0,2 18 10 36 19 SSW 26 0,0
09.12.2017 22:00:00 1,6 -1,0 0,9 25 14 40 21 SSW 24 0,0
09.12.2017 21:00:00 1,5 -1,3 0,8 25 14 32 18 SSW 20 0,0
09.12.2017 20:00:00 1,2 -1,3 0,5 22 12 29 16 SSW 24 0,0
09.12.2017 19:00:00 1,1 -1,7 0,5 22 12 36 19 SSW 26 0,0
09.12.2017 18:00:00 1,5 -1,7 0,8 22 12 32 18 SW 28 0,0
09.12.2017 17:00:00 1,8 -0,9 1,2 22 12 32 18 SW 23 0,0
09.12.2017 16:00:00 2,3 -0,6 2,0 22 12 40 21 SW 22 0,0
09.12.2017 15:00:00 2,2 -0,7 2,0 22 12 40 21 SW 22 0,0
09.12.2017 14:00:00 3,2 -0,2 3,1 22 12 40 21 WSW 25 0,0
09.12.2017 13:00:00 2,6 -0,2 2,7 22 12 40 21 SW 19 0,0
09.12.2017 12:00:00 2,2 -0,4 2,1 25 14 36 19 SW 23 0,0
09.12.2017 11:00:00 2,0 -0,9 1,8 25 14 36 19 WSW 18 0,0
09.12.2017 10:00:00 1,7 -1,3 1,5 25 14 43 23 WSW 22 0,0
09.12.2017 09:00:00 1,4 -1,9 1,0 29 16 47 25 WSW 28 0,0
09.12.2017 08:00:00 1,1 -2,0 0,7 22 12 36 19 WSW 17 0,0
09.12.2017 07:00:00 0,8 -2,2 0,4 22 12 36 19 SW 24 0,0
09.12.2017 06:00:00 0,5 -2,5 -0,1 22 12 32 18 SW 21 0,0
09.12.2017 05:00:00 0,1 -2,8 -0,8 22 12 32 18 WSW 26 0,0
09.12.2017 04:00:00 0,1 -2,7 -0,7 18 10 32 18 WSW 26 0,0
09.12.2017 03:00:00 0,9 -2,5 0,3 22 12 32 18 WSW 26 0,0
09.12.2017 02:00:00 0,7 -2,4 0,1 18 10 29 16 WSW 25 0,0
09.12.2017 01:00:00 0,7 -2,4 0,1 18 10 29 16 SW 24 0,0
09.12.2017 00:00:00 1,3 -1,8 0,9 18 10 29 16 WSW 25 0,0
08.12.2017 23:00:00 1,8 -1,7 1,5 22 12 36 19 WSW 29 0,0
08.12.2017 22:00:00 2,1 -1,8 1,8 18 10 29 16 WSW 28 0,0
08.12.2017 21:00:00 1,9 -1,8 1,4 18 10 36 19 SW 29 0,0
08.12.2017 20:00:00 1,9 -1,7 1,2 22 12 32 18 SW 24 0,0
08.12.2017 19:00:00 1,7 -2,1 1,0 22 12 36 19 WSW 36 0,0
08.12.2017 18:00:00 1,9 -1,6 1,1 14 8 36 19 SW 31 0,0
08.12.2017 17:00:00 1,9 -1,3 1,2 18 10 36 19 WSW 27 0,0
08.12.2017 16:00:00 3,1 -0,9 2,5 22 12 36 19 W 28 0,0
08.12.2017 15:00:00 4,3 0,7 4,1 18 10 32 18 WSW 25 0,0
08.12.2017 14:00:00 2,6 1,7 2,7 7 4 22 12 N 19 0,1
08.12.2017 13:00:00 2,4 1,5 2,4 18 10 36 19 W 3,5 0,6
08.12.2017 12:00:00 2,9 1,7 3,3 22 12 36 19 WSW 20 0,4
08.12.2017 11:00:00 2,6 1,1 2,7 22 12 43 23 SW 18 0,5
08.12.2017 10:00:00 2,5 0,7 2,4 25 14 40 21 WSW 11 0,2
08.12.2017 09:00:00 0,9 0,0 0,3 14 8 36 19 SSW 20 0,0
08.12.2017 08:00:00 2,0 -0,1 1,6 29 16 54 29 WSW 24 0,4
08.12.2017 07:00:00 2,8 1,2 1,6 18 10 25 14 WSW 16 0,0
08.12.2017 06:00:00 3,0 0,9 2,1 18 10 32 18 SW 19 0,0
08.12.2017 05:00:00 3,7 1,5 2,8 18 10 36 19 WSW 21 0,0
08.12.2017 04:00:00 4,5 2,3 3,9 22 12 36 19 WSW 15 0,0
08.12.2017 03:00:00 4,6 3,1 3,6 14 8 25 14 WSW 10 0,0
08.12.2017 02:00:00 4,9 3,3 4,1 18 10 29 16 WSW 12 0,0
08.12.2017 01:00:00 5,9 4,4 5,4 22 12 29 16 WSW 12 0,0
08.12.2017 00:00:00 6,0 4,8 5,5 18 10 25 14 WSW 12 0,0
07.12.2017 23:00:00 6,1 5,1 5,3 18 10 25 14 WSW 13 0,0
07.12.2017 22:00:00 6,5 5,4 6,1 18 10 32 18 WSW 19 0,1
07.12.2017 21:00:00 6,7 6,1 6,5 22 12 47 25 WSW 8 0,7
07.12.2017 20:00:00 6,6 5,8 6,4 29 16 43 23 SW 3,5 1,2
07.12.2017 19:00:00 6,7 5,6 6,3 25 14 43 23 SSW 11 1,5
07.12.2017 18:00:00 6,3 5,4 6,0 29 16 54 29 SSW 3,7 0,8
07.12.2017 17:00:00 6,5 4,8 6,1 32 18 54 29 SSW 16 0,0
07.12.2017 16:00:00 6,0 4,7 5,6 36 19 54 29 SSW 6 0,1
07.12.2017 15:00:00 6,0 4,0 5,7 32 18 54 29 SSW 12 0,0
07.12.2017 14:00:00 6,1 3,3 5,9 32 18 61 33 SSW 16 0,0
07.12.2017 13:00:00 5,6 3,0 5,5 32 18 54 29 SSW 13 0,0
07.12.2017 12:00:00 5,2 2,7 4,7 29 16 43 23 S 11 0,1
07.12.2017 11:00:00 4,8 1,4 4,7 29 16 43 23 SSW 17 0,0
07.12.2017 10:00:00 3,9 0,7 3,7 29 16 47 25 S 18 0,0
07.12.2017 09:00:00 3,0 0,2 2,9 29 16 43 23 S 16 0,0
07.12.2017 08:00:00 3,0 0,2 2,9 29 16 43 23 S 16 0,0
07.12.2017 07:00:00 3,3 0,3 3,1 29 16 43 23 SSW 17 0,0
07.12.2017 06:00:00 4,1 0,8 4,0 29 16 47 25 S 19 0,0
07.12.2017 05:00:00 4,7 0,9 4,4 22 12 47 25 SSW 27 0,0
07.12.2017 04:00:00 5,3 0,9 4,9 25 14 43 23 SSW 26 0,0

tt = Température de l'air
td = dewpoint
tt 5cm = Température de l'air 5cm
ff = Vitesse du vent
fx = gusts
dd = Direction du vent
vv = visibility
rr = Quantités de précipitations

stations d'obs. à proximité